Flight Track Log - Related Links

Times and Time Zones

All times are in EST time to prevent confusion due to time zone crossing. See the N102VU flight status page for this flight to view local times or setup timezone preferences in your user account.

Time Position Orientation Groundspeed Altitude Reporting Facility
EST Latitude Longitude Course Direction KTS MPH feet Rate Location/Type
Sun 10:43:46 AM 36.1333 -86.8000 148° Southeast 59 68 800  Level Nashville TRACON
Sun 10:43:58 AM 36.1333 -86.8000 148° Southeast 59 68 1,100 904 Climbing Nashville TRACON
Sun 10:44:59 AM 36.1167 -86.7833 141° Southeast 90 104 1,900 843 Climbing Nashville TRACON
Sun 10:45:59 AM 36.1000 -86.7667 141° Southeast 101 116 2,800 1,050 Climbing Nashville TRACON
Sun 10:46:59 AM 36.0833 -86.7500 141° Southeast 86 99 4,000 650 Climbing Nashville TRACON
Sun 10:47:59 AM 36.0500 -86.7333 158° South 111 128 4,100 450 Climbing Nashville TRACON
Sun 10:48:59 AM 36.0333 -86.7167 141° Southeast 106 122 4,900 450 Climbing Nashville TRACON
Sun 10:49:00 AM 35.9584 -86.6622 148° Southeast  Level FlightAware Approximate
Sun 10:49:59 AM 36.0000 -86.7000 158° South 105 121 5,000  Level Nashville TRACON
Sun 10:50:59 AM 35.9667 -86.6833 158° South 118 136 5,100  Climbing Nashville TRACON
Sun 10:51:59 AM 35.9500 -86.6500 122° Southeast 119 137 5,000 -50 Descending Nashville TRACON
Sun 10:52:59 AM 35.9167 -86.6333 158° South 119 137 5,000  Level Nashville TRACON
Sun 10:53:29 AM 35.9061 -86.6289 161° South 119 137 5,000  Level Memphis Center
Sun 10:54:30 AM 35.8775 -86.6072 148° Southeast 119 137 5,000  Level Memphis Center
Sun 10:55:32 AM 35.8486 -86.5864 150° Southeast 119 137 5,000 -49 Level Memphis Center
Sun 10:56:33 AM 35.8189 -86.5644 149° Southeast 121 139 4,900 -49 Descending Memphis Center
Sun 10:57:35 AM 35.7897 -86.5431 149° Southeast 121 139 4,900  Level Memphis Center
Sun 10:58:36 AM 35.7608 -86.5225 150° Southeast 119 137 4,900  Level Memphis Center
Sun 10:59:40 AM 35.7283 -86.4994 150° Southeast 115 132 4,900  Level Memphis Center
Sun 11:00:42 AM 35.7006 -86.4758 145° Southeast 117 135 4,900  Level Memphis Center
Sun 11:01:43 AM 35.6878 -86.4292 109° East 132 152 4,900  Level Memphis Center
Sun 11:02:44 AM 35.6614 -86.3997 138° Southeast 128 147 4,900 -244 Level Memphis Center
Sun 11:03:46 AM 35.6394 -86.3644 127° Southeast 128 147 4,400 -585 Descending Memphis Center
Sun 11:04:47 AM 35.6164 -86.3286 128° Southeast 130 150 3,700 -683 Descending Memphis Center
Sun 11:05:49 AM 35.5936 -86.2933 128° Southeast 131 151 3,000 -390 Descending Memphis Center
Sun 11:06:50 AM 35.5725 -86.2625 130° Southeast 121 139 2,900 -98 Descending Memphis Center
Sun 11:07:52 AM 35.5489 -86.2478 153° Southeast 114 131 2,800 -244 Descending Memphis Center
Sun 11:08:53 AM 35.5253 -86.2444 173° South 95 109 2,400 -195 Descending Memphis Center
Sun 11:09:55 AM 35.4964 -86.2436 179° South 89 102 2,400 49 Level Memphis Center
Sun 11:10:56 AM 35.4733 -86.2436 180° South 86 99 2,500 -49 Climbing Memphis Center
Sun 11:11:58 AM 35.4500 -86.2436 180° South 85 98 2,300 -194 Descending Memphis Center
Sun 11:13:00 AM 35.4174 -86.2369 170° South  Level FlightAware Approximate

Login

Don't have an account? Register now (free) for customized features, flight alerts, and more!